GOBD Airport Information

Runway Information
Runway 01 Length 11483 ft width 197 ft Elevation 272 ft Threshold 394 ft Heading 359
Runway 19 Length 11483 ft Width 197 ft Elevation 251 ft Threshold 394 ft Heading 179
Airport Frequencies
Airport Navaids
Airport Weather Information & NOTAM
ADDS - METARS form results

(1152 UTC 30 January 2023)
Data provider http://aviationweather.gov/metar/data/
 
METAR text: GOBD 301130Z 04014KT CAVOK 25/05 Q1014 NOSIG
Conditions at: GOBD (DAKAR/DIAGNE , SN) observed 1130 UTC 30 January 2023
Temperature: 25.0°C (77°F)
Dewpoint: 5.0°C (41°F) [RH = 28%]
Pressure (altimeter): 29.94 inches Hg (1014.0 mb)
Winds: from the NE (40 degrees) at 16 MPH (14 knots; 7.2 m/s)
Visibility: 6 or more miles (10+ km)
Ceiling: ceiling and visibility are OK
Clouds: unknown
Weather: no significant weather observed at this time

METAR text: GOBD 301100Z 05015KT CAVOK 24/05 Q1015 NOSIG
Conditions at: GOBD (DAKAR/DIAGNE , SN) observed 1100 UTC 30 January 2023
Temperature: 24.0°C (75°F)
Dewpoint: 5.0°C (41°F) [RH = 29%]
Pressure (altimeter): 29.97 inches Hg (1015.0 mb)
Winds: from the NE (50 degrees) at 17 MPH (15 knots; 7.7 m/s)
Visibility: 6 or more miles (10+ km)
Ceiling: ceiling and visibility are OK
Clouds: unknown
Weather: no significant weather observed at this time

Forecast for: GOBD (DAKAR/DIAGNE , SN)
Text: TAF GOBD 301100Z 3012/3118 06013KT CAVOK
Forecast period: 1200 to 1600 UTC 30 January 2023
Forecast type: FROM: standard forecast or significant change
Winds: from the ENE (60 degrees) at 15 MPH (13 knots; 6.7 m/s)
Visibility: 6 or more miles (10+ km)
Ceiling: unknown
Clouds: missing
Weather: NSW  (no significant weather)
Text: BECMG 3016/3018 36012KT
Forecast period: 1600 UTC 30 January 2023 to 1800 UTC 31 January 2023
Forecast type: BECOMING: Conditions expected to become as follows by 1800 UTC 30 January 2023
Winds: from the N (360 degrees) at 14 MPH (12 knots; 6.2 m/s)
Visibility: 6 or more miles (10+ km)
Ceiling: unknown
Clouds: missing
Weather: NSW  (no significant weather)